Date,TemperatureHighF,TemperatureAvgF,TemperatureLowF,DewpointHighF,DewpointAvgF,DewpointLowF,HumidityHigh,HumidityAvg,HumidityLow,PressureMaxIn,PressureMinIn,WindSpeedMaxMPH,WindSpeedAvgMPH,GustSpeedMaxMPH,PrecipitationSumIn
2014-1-1,48.9,43.2,39.8,45.7,39.7,36.0,94,88,82,29.27,28.66,15,7,26,0.13
2014-1-2,46.6,43.9,42.0,42.1,40.3,37.8,94,87,80,29.11,28.66,20,9,29,0.00
2014-1-3,46.8,44.3,41.2,42.2,39.9,38.8,94,85,76,28.94,28.66,25,16,43,0.07
2014-1-4,44.9,41.3,38.6,40.2,37.7,35.4,92,87,80,29.23,28.94,16,6,35,0.09
2014-1-5,48.0,41.9,37.2,45.1,38.2,33.8,96,87,78,29.34,28.81,13,5,21,0.07
2014-1-6,49.2,46.7,43.9,45.1,43.2,40.0,96,88,78,28.88,28.75,20,12,35,0.13
2014-1-7,49.3,47.4,45.6,43.2,42.0,40.7,88,82,75,29.34,28.88,21,11,33,0.01
2014-1-8,47.7,45.5,42.2,43.4,41.5,39.6,91,86,81,29.69,29.34,14,8,27,0.02
2014-1-9,44.6,41.3,37.3,40.3,38.8,36.2,97,91,84,29.64,29.50,14,6,22,0.00
2014-1-10,46.5,42.4,37.0,42.9,39.3,34.3,92,89,85,29.75,29.63,10,5,20,0.04
2014-1-11,42.2,38.5,36.2,37.7,35.2,33.6,92,88,83,30.12,29.75,15,7,28,0.00
2014-1-12,41.4,37.9,34.3,38.4,33.7,30.3,95,85,68,30.12,29.44,10,5,17,0.08
2014-1-13,42.7,40.7,37.7,39.2,37.4,36.1,95,88,81,29.50,29.42,10,3,18,0.16
2014-1-14,40.1,37.8,35.7,37.3,35.9,34.4,96,93,87,29.56,29.40,9,3,16,0.09
2014-1-15,51.1,44.2,39.7,47.0,41.7,36.5,95,91,84,29.39,29.11,10,5,18,0.17
2014-1-16,44.3,42.6,40.4,41.3,40.4,39.1,96,92,88,29.15,29.05,9,4,17,0.07
2014-1-17,43.5,42.6,41.4,41.6,40.9,39.4,96,94,91,29.19,29.00,7,2,13,0.28
2014-1-18,45.6,43.1,40.5,43.0,40.3,37.2,94,90,86,29.24,29.16,15,6,24,0.05
2014-1-19,45.9,43.7,38.9,43.1,40.5,35.3,94,88,81,29.46,29.20,10,5,20,0.09
2014-1-20,46.8,42.7,40.4,41.6,38.5,35.5,90,85,81,29.80,29.46,6,2,12,0.00
2014-1-21,43.8,42.1,40.3,39.5,37.6,36.1,90,84,77,29.79,29.49,12,5,17,0.02
2014-1-22,46.4,44.0,41.4,43.1,41.0,38.7,92,89,83,29.65,29.47,10,6,20,0.05
2014-1-23,43.6,40.1,34.3,40.1,35.5,31.2,90,83,77,29.83,29.49,15,8,29,0.00
2014-1-24,48.0,41.2,34.9,45.5,37.9,31.9,93,88,79,29.84,29.57,13,3,20,0.21
2014-1-25,47.9,43.3,39.1,44.3,39.9,35.8,94,88,82,29.71,29.41,18,10,36,0.17
2014-1-26,45.0,40.6,38.7,39.6,36.1,33.8,89,84,77,29.71,28.87,15,9,28,0.14
2014-1-27,44.8,42.1,39.3,40.6,38.5,34.1,94,87,81,28.95,28.81,15,7,26,0.02
2014-1-28,43.8,42.2,40.2,41.5,40.1,38.5,94,92,88,29.24,28.94,14,7,23,0.17
2014-1-29,43.9,42.0,39.9,41.3,39.0,34.9,93,89,82,29.75,29.24,14,9,27,0.05
2014-1-30,39.9,38.8,37.9,35.3,33.5,31.5,87,81,75,29.75,29.68,12,6,17,0.00
2014-1-31,42.0,40.2,38.2,38.7,35.6,32.3,90,84,76,29.69,28.77,15,8,26,0.00